Time;durP1;ratioP1;P1;durP2;ratioP2;P2;SDS_P1;SDS_P2;PMS_P1;PMS_P2;Temp;Humidity;BMP_temperature;BMP_pressure;BME280_temperature;BME280_humidity;BME280_pressure;Samples;Min_cycle;Max_cycle;Signal;HPM_P1;HPM_P2
2023/10/09 00:01:13;;;;;;;17.83;6.57;;;14.50;1.00;;;;;;7361846;19;20010;-71
2023/10/09 00:03:51;;;;;;;11.88;6.05;;;14.50;1.00;;;;;;7359028;19;20467;-69
2023/10/09 00:06:36;;;;;;;14.43;7.00;;;14.50;1.00;;;;;;7360634;19;20006;-70
2023/10/09 00:09:30;;;;;;;15.38;6.95;;;14.50;1.00;;;;;;7359820;19;20014;-70
2023/10/09 00:12:10;;;;;;;14.32;6.57;;;14.50;1.00;;;;;;7361069;19;20010;-69
2023/10/09 00:14:41;;;;;;;12.88;6.55;;;14.50;1.00;;;;;;7359511;19;20006;-69
2023/10/09 00:17:19;;;;;;;12.05;6.40;;;14.50;1.00;;;;;;7359911;19;20489;-70
2023/10/09 00:19:59;;;;;;;16.70;6.55;;;14.40;1.00;;;;;;7361581;19;20011;-69
2023/10/09 00:22:37;;;;;;;15.70;6.70;;;14.40;1.00;;;;;;7361341;19;20015;-70
2023/10/09 00:25:14;;;;;;;16.70;7.28;;;14.40;1.00;;;;;;7357676;19;20706;-68
2023/10/09 00:27:48;;;;;;;17.88;7.25;;;14.40;1.00;;;;;;7367347;19;20010;-68
2023/10/09 00:30:21;;;;;;;15.07;6.60;;;14.40;1.00;;;;;;7374456;19;20039;-69
2023/10/09 00:32:59;;;;;;;16.35;6.30;;;14.40;1.00;;;;;;7363467;19;20346;-70
2023/10/09 00:35:46;;;;;;;14.73;7.15;;;14.40;1.00;;;;;;7353261;19;20015;-70
2023/10/09 00:38:22;;;;;;;16.83;7.13;;;14.40;1.00;;;;;;7359955;19;20350;-70
2023/10/09 00:41:10;;;;;;;18.35;6.80;;;14.40;1.00;;;;;;7362398;19;20464;-70
2023/10/09 00:43:43;;;;;;;14.77;7.05;;;14.40;1.00;;;;;;6849836;19;2005138;-70
2023/10/09 00:46:23;;;;;;;23.10;7.53;;;14.30;1.00;;;;;;7359829;19;20453;-69
2023/10/09 00:49:01;;;;;;;13.93;6.90;;;14.40;1.00;;;;;;7361621;19;20794;-69
2023/10/09 00:51:35;;;;;;;20.42;7.03;;;14.40;1.00;;;;;;7360348;19;20036;-69
2023/10/09 00:54:14;;;;;;;17.67;7.25;;;14.40;1.00;;;;;;7358806;19;20036;-69
2023/10/09 00:56:57;;;;;;;16.15;6.65;;;14.30;1.00;;;;;;7359029;19;20018;-69
2023/10/09 00:59:31;;;;;;;14.20;6.65;;;14.30;1.00;;;;;;7358369;19;20082;-70
2023/10/09 01:02:05;;;;;;;19.35;7.22;;;14.30;1.00;;;;;;7359359;19;20014;-70
2023/10/09 01:04:41;;;;;;;14.80;6.55;;;14.30;1.00;;;;;;7357175;19;20042;-68
2023/10/09 01:07:15;;;;;;;16.70;6.43;;;14.30;1.00;;;;;;7357712;19;25101;-70
2023/10/09 01:09:46;;;;;;;11.02;6.43;;;14.30;1.00;;;;;;7358351;19;20037;-70
2023/10/09 01:12:19;;;;;;;16.30;6.18;;;14.30;1.00;;;;;;7360400;19;20023;-70
2023/10/09 01:14:54;;;;;;;16.05;6.35;;;14.30;1.00;;;;;;7358163;19;22338;-70
2023/10/09 01:17:35;;;;;;;12.55;6.18;;;14.20;1.00;;;;;;7359354;19;20010;-70
2023/10/09 01:20:15;;;;;;;15.13;6.75;;;14.20;1.00;;;;;;7357764;19;20014;-70
2023/10/09 01:22:46;;;;;;;12.82;6.90;;;14.20;1.00;;;;;;7358624;19;20010;-70
2023/10/09 01:25:20;;;;;;;16.60;5.88;;;14.30;1.00;;;;;;7354223;19;20013;-69
2023/10/09 01:27:50;;;;;;;15.32;6.20;;;14.20;1.00;;;;;;7358337;19;20043;-71
2023/10/09 01:30:20;;;;;;;16.35;6.45;;;14.20;1.00;;;;;;7359101;19;20031;-70
2023/10/09 01:32:51;;;;;;;16.25;6.78;;;14.20;1.00;;;;;;7358735;19;20426;-69
2023/10/09 01:35:23;;;;;;;13.57;6.50;;;14.30;1.00;;;;;;7354328;19;20006;-68
2023/10/09 01:37:56;;;;;;;16.73;6.78;;;14.20;1.00;;;;;;7360699;19;20085;-69
2023/10/09 01:40:37;;;;;;;18.15;6.78;;;14.30;1.00;;;;;;7360424;19;20013;-70
2023/10/09 01:43:09;;;;;;;15.35;6.45;;;14.20;1.00;;;;;;7358491;19;20014;-71
2023/10/09 01:45:46;;;;;;;16.63;6.72;;;14.30;1.00;;;;;;7352677;19;20121;-70
2023/10/09 01:48:23;;;;;;;14.13;6.38;;;14.20;1.00;;;;;;7360182;19;20018;-70
2023/10/09 01:50:53;;;;;;;13.57;5.90;;;14.20;1.00;;;;;;7355903;19;20014;-70
2023/10/09 01:53:29;;;;;;;16.00;5.85;;;14.20;1.00;;;;;;7357971;19;20031;-70
2023/10/09 01:56:14;;;;;;;22.25;6.97;;;14.20;1.00;;;;;;7356656;19;20010;-70
2023/10/09 01:58:47;;;;;;;17.80;6.38;;;14.20;1.00;;;;;;6850217;19;2006203;-70
2023/10/09 02:01:17;;;;;;;16.00;6.75;;;14.30;1.00;;;;;;7360220;19;20006;-70
2023/10/09 02:03:51;;;;;;;15.00;5.78;;;14.30;1.00;;;;;;7351823;19;20034;-71
2023/10/09 02:06:28;;;;;;;15.77;6.72;;;14.30;1.00;;;;;;7357545;19;20113;-70
2023/10/09 02:08:59;;;;;;;18.45;6.93;;;14.30;1.00;;;;;;7359585;19;20010;-70
2023/10/09 02:11:41;;;;;;;14.75;5.97;;;14.30;1.00;;;;;;7359607;19;20807;-69
2023/10/09 02:14:19;;;;;;;17.20;6.80;;;14.30;1.00;;;;;;6842621;19;2004781;-70
2023/10/09 02:17:02;;;;;;;18.13;7.10;;;14.20;1.00;;;;;;7356249;19;20015;-70
2023/10/09 02:19:34;;;;;;;18.85;6.72;;;14.30;1.00;;;;;;7356768;19;20040;-70
2023/10/09 02:22:12;;;;;;;18.70;6.65;;;14.30;1.00;;;;;;7358059;19;20007;-70
2023/10/09 02:27:46;;;;;;;20.52;7.25;;;14.30;1.00;;;;;;7354753;19;20078;-70
2023/10/09 02:30:26;;;;;;;13.73;7.13;;;14.30;1.00;;;;;;7358839;19;20014;-70
2023/10/09 02:33:06;;;;;;;16.60;6.30;;;14.30;1.00;;;;;;7359886;19;20018;-69
2023/10/09 02:35:42;;;;;;;17.15;7.10;;;14.30;1.00;;;;;;7349790;19;20025;-70
2023/10/09 02:38:14;;;;;;;17.20;7.68;;;14.30;1.00;;;;;;7355298;19;20109;-70
2023/10/09 02:41:04;;;;;;;18.98;6.47;;;14.20;1.00;;;;;;7358734;19;20006;-69
2023/10/09 02:43:44;;;;;;;15.50;6.97;;;14.20;1.00;;;;;;7353178;19;20021;-70
2023/10/09 02:46:17;;;;;;;18.88;6.95;;;14.20;1.00;;;;;;7355718;19;20042;-70
2023/10/09 02:48:50;;;;;;;15.52;7.35;;;14.20;1.00;;;;;;7358574;19;20044;-70
2023/10/09 02:51:33;;;;;;;17.05;6.95;;;14.20;1.00;;;;;;7357566;19;20502;-69
2023/10/09 02:54:18;;;;;;;21.55;7.07;;;14.30;1.00;;;;;;7351212;19;20457;-70
2023/10/09 02:56:55;;;;;;;17.10;6.57;;;14.30;1.00;;;;;;7355188;19;20025;-70
2023/10/09 02:59:29;;;;;;;17.05;6.25;;;14.30;1.00;;;;;;7359686;19;20002;-70
2023/10/09 03:01:59;;;;;;;16.92;6.35;;;14.30;1.00;;;;;;7361721;19;20209;-69
2023/10/09 03:04:31;;;;;;;17.15;6.63;;;14.30;1.00;;;;;;7360945;19;20272;-70
2023/10/09 03:07:01;;;;;;;17.23;6.63;;;14.30;1.00;;;;;;7360112;19;20011;-69
2023/10/09 03:09:32;;;;;;;14.82;5.85;;;14.20;1.00;;;;;;7365744;19;20545;-70
2023/10/09 03:12:06;;;;;;;20.63;6.97;;;14.30;1.00;;;;;;7363273;19;21209;-69
2023/10/09 03:14:41;;;;;;;18.75;6.50;;;14.30;1.00;;;;;;7362795;19;20006;-69
2023/10/09 03:17:12;;;;;;;15.25;6.07;;;14.30;1.00;;;;;;7368927;19;20391;-70
2023/10/09 03:19:43;;;;;;;18.80;6.50;;;14.20;1.00;;;;;;7371941;19;20047;-70
2023/10/09 03:22:13;;;;;;;21.25;6.25;;;14.20;1.00;;;;;;7374471;19;20032;-69
2023/10/09 03:24:44;;;;;;;15.82;6.30;;;14.20;1.00;;;;;;7362469;19;20007;-70
2023/10/09 03:27:20;;;;;;;17.27;6.60;;;14.20;1.00;;;;;;7370795;19;20007;-70
2023/10/09 03:29:53;;;;;;;13.60;6.10;;;14.30;1.00;;;;;;7372484;19;20014;-70
2023/10/09 03:32:24;;;;;;;19.35;6.97;;;14.30;1.00;;;;;;7373806;19;20014;-70
2023/10/09 03:34:55;;;;;;;20.63;7.35;;;14.30;1.00;;;;;;7370584;19;20013;-70
2023/10/09 03:37:34;;;;;;;17.10;6.53;;;14.30;1.00;;;;;;7372328;19;20002;-70
2023/10/09 03:40:06;;;;;;;18.98;7.20;;;14.30;1.00;;;;;;7372852;19;20014;-70
2023/10/09 03:42:41;;;;;;;14.35;6.03;;;14.20;1.00;;;;;;7372507;19;20010;-69
2023/10/09 03:45:24;;;;;;;19.00;7.15;;;14.30;1.00;;;;;;7370185;19;20380;-70
2023/10/09 03:48:01;;;;;;;16.08;6.68;;;14.20;1.00;;;;;;7373528;19;20015;-69
2023/10/09 03:50:35;;;;;;;15.40;6.13;;;14.20;1.00;;;;;;7372023;19;20017;-70
2023/10/09 03:53:12;;;;;;;22.95;6.65;;;14.20;1.00;;;;;;7373723;19;20094;-69
2023/10/09 03:55:43;;;;;;;17.42;5.82;;;14.20;1.00;;;;;;7369060;19;20091;-70
2023/10/09 03:58:15;;;;;;;19.00;7.30;;;14.20;1.00;;;;;;7374609;19;20381;-70
2023/10/09 04:00:49;;;;;;;15.27;6.70;;;14.20;1.00;;;;;;7376425;19;20511;-70
2023/10/09 04:03:20;;;;;;;17.75;6.28;;;14.20;1.00;;;;;;7376062;19;20003;-70
2023/10/09 04:05:53;;;;;;;15.18;6.90;;;14.10;1.00;;;;;;7372063;19;20011;-70
2023/10/09 04:08:29;;;;;;;17.67;6.63;;;14.10;1.00;;;;;;7376513;19;20006;-70
2023/10/09 04:11:03;;;;;;;19.00;6.80;;;14.10;1.00;;;;;;7380217;19;20345;-70
2023/10/09 04:13:40;;;;;;;17.70;7.90;;;14.10;1.00;;;;;;7358265;19;20017;-70
2023/10/09 04:18:59;;;;;;;21.70;7.15;;;14.00;1.00;;;;;;7363915;19;20082;-70
2023/10/09 04:21:36;;;;;;;23.40;8.35;;;14.00;1.00;;;;;;7359271;19;20011;-69
2023/10/09 04:26:55;;;;;;;15.32;6.82;;;14.10;1.00;;;;;;7355157;19;20011;-69
2023/10/09 04:29:37;;;;;;;18.63;7.13;;;14.10;1.00;;;;;;7362626;19;20490;-69
2023/10/09 04:32:15;;;;;;;17.77;6.70;;;14.10;1.00;;;;;;7356574;19;20014;-69
2023/10/09 04:34:56;;;;;;;22.05;6.47;;;14.10;1.00;;;;;;7358973;19;20018;-68
2023/10/09 04:37:36;;;;;;;17.00;6.13;;;14.10;1.00;;;;;;7360227;19;20022;-69
2023/10/09 04:40:40;;;;;;;20.45;6.63;;;14.10;1.00;;;;;;7358605;19;20017;-69
2023/10/09 04:43:06;;;;;;;21.13;7.80;;;14.10;1.00;;;;;;7352064;19;20581;-70
2023/10/09 04:48:37;;;;;;;20.40;6.70;;;14.10;1.00;;;;;;7360236;19;20017;-69
2023/10/09 04:54:00;;;;;;;16.20;6.43;;;14.10;1.00;;;;;;7356913;19;20094;-69
2023/10/09 04:56:33;;;;;;;19.92;6.68;;;14.20;1.00;;;;;;7358708;19;20043;-70
2023/10/09 04:59:08;;;;;;;16.95;6.30;;;14.20;1.00;;;;;;7356941;19;20021;-69
2023/10/09 05:01:45;;;;;;;19.83;6.50;;;14.10;1.00;;;;;;7357951;19;20011;-69
2023/10/09 05:04:39;;;;;;;19.98;7.20;;;14.10;1.00;;;;;;7357471;19;20003;-69
2023/10/09 05:10:14;;;;;;;21.80;7.15;;;14.20;1.00;;;;;;7374242;19;20067;-69
2023/10/09 05:12:46;;;;;;;22.15;6.68;;;14.20;1.00;;;;;;6863410;19;2004779;-70
2023/10/09 05:15:17;;;;;;;25.13;7.38;;;14.20;1.00;;;;;;7373459;19;20049;-69
2023/10/09 05:17:52;;;;;;;21.08;7.40;;;14.20;1.00;;;;;;7373870;19;20354;-70
2023/10/09 05:23:23;;;;;;;21.45;7.00;;;14.10;1.00;;;;;;7368708;19;20017;-69
2023/10/09 05:25:55;;;;;;;15.48;5.85;;;14.10;1.00;;;;;;7370412;19;20011;-69
2023/10/09 05:28:30;;;;;;;15.07;6.10;;;14.10;1.00;;;;;;7375243;19;20019;-69
2023/10/09 05:31:06;;;;;;;18.88;6.50;;;14.10;1.00;;;;;;7374431;19;20014;-70
2023/10/09 05:33:38;;;;;;;20.38;6.03;;;14.10;1.00;;;;;;7373510;19;20011;-70
2023/10/09 05:38:58;;;;;;;20.10;6.50;;;14.20;1.00;;;;;;7373911;19;20007;-69
2023/10/09 05:41:52;;;;;;;20.48;6.32;;;14.20;1.00;;;;;;7374501;19;20340;-69
2023/10/09 05:50:02;;;;;;;22.17;6.60;;;14.30;1.00;;;;;;7372853;19;20011;-70
2023/10/09 05:52:32;;;;;;;18.63;6.30;;;14.30;1.00;;;;;;7371897;19;20020;-70
2023/10/09 06:03:25;;;;;;;22.05;7.32;;;14.40;1.00;;;;;;7368914;19;20022;-69
2023/10/09 06:06:07;;;;;;;25.35;6.70;;;14.40;1.00;;;;;;7370234;19;20037;-70
2023/10/09 06:11:49;;;;;;;15.13;6.03;;;14.50;1.00;;;;;;7370689;19;20034;-70
2023/10/09 06:14:24;;;;;;;;;;;14.50;1.00;;;;;;7374286;19;20048;-70
2023/10/09 06:17:22;;;;;;;22.33;7.45;;;14.50;1.00;;;;;;7369677;19;20332;-69
2023/10/09 06:19:58;;;;;;;21.23;6.72;;;14.60;1.00;;;;;;6863616;19;2004830;-68
2023/10/09 06:25:17;;;;;;;21.20;7.57;;;14.70;1.00;;;;;;7369174;19;20030;-69
2023/10/09 06:28:01;;;;;;;15.57;6.85;;;14.70;1.00;;;;;;7372325;19;20019;-69
2023/10/09 06:30:34;;;;;;;18.58;5.95;;;14.70;1.00;;;;;;7374711;19;20462;-69
2023/10/09 06:33:19;;;;;;;19.23;6.38;;;14.70;1.00;;;;;;7370307;19;19999;-69
2023/10/09 06:36:08;;;;;;;19.60;6.70;;;14.80;1.00;;;;;;7371825;19;20010;-70
2023/10/09 06:38:52;;;;;;;18.27;6.03;;;14.80;1.00;;;;;;7379014;19;20338;-69
2023/10/09 06:41:37;;;;;;;28.20;7.17;;;14.80;1.00;;;;;;7380017;19;23011;-69
2023/10/09 06:44:05;;;;;;;20.92;5.80;;;14.90;1.00;;;;;;7376929;19;20506;-69
2023/10/09 06:46:52;;;;;;;17.45;6.47;;;14.90;1.00;;;;;;7375462;19;20465;-70
2023/10/09 06:49:36;;;;;;;17.98;6.20;;;14.90;1.00;;;;;;7378528;19;20650;-69
2023/10/09 06:52:27;;;;;;;17.70;5.75;;;15.00;1.00;;;;;;7375284;19;20015;-69
2023/10/09 06:55:09;;;;;;;22.23;7.80;;;15.00;1.00;;;;;;7376928;19;21054;-69
2023/10/09 06:57:48;;;;;;;21.73;8.10;;;15.00;1.00;;;;;;7377972;19;20034;-69
2023/10/09 07:03:14;;;;;;;30.63;11.52;;;15.10;1.00;;;;;;6867575;19;2004689;-70
2023/10/09 07:06:04;;;;;;;28.33;11.88;;;15.20;1.00;;;;;;7377044;19;20018;-70
2023/10/09 07:08:37;;;;;;;32.80;13.05;;;15.30;1.00;;;;;;7378379;19;20462;-70
2023/10/09 07:13:55;;;;;;;29.35;13.82;;;15.40;1.00;;;;;;7378643;19;20034;-70
2023/10/09 07:16:28;;;;;;;33.67;15.57;;;15.30;1.00;;;;;;7376074;19;20479;-69
2023/10/09 07:19:09;;;;;;;36.50;15.07;;;15.40;1.00;;;;;;7378519;19;20105;-69
2023/10/09 07:21:51;;;;;;;32.95;14.20;;;15.50;1.00;;;;;;7377505;19;20022;-69
2023/10/09 07:24:34;;;;;;;33.17;13.68;;;15.60;1.00;;;;;;7377604;19;20014;-69
2023/10/09 07:27:08;;;;;;;28.75;12.32;;;15.60;1.00;;;;;;7373833;19;20053;-69
2023/10/09 07:29:50;;;;;;;28.40;11.45;;;15.70;1.00;;;;;;7377324;19;20003;-69
2023/10/09 07:32:22;;;;;;;25.55;9.75;;;15.80;1.00;;;;;;7376640;19;20081;-69
2023/10/09 07:34:53;;;;;;;20.27;7.75;;;15.90;1.00;;;;;;7378172;19;20014;-69
2023/10/09 07:37:24;;;;;;;29.35;7.22;;;15.80;1.00;;;;;;7376132;19;20014;-69
2023/10/09 07:40:06;;;;;;;18.27;6.50;;;15.90;1.00;;;;;;7377957;19;20015;-70
2023/10/09 07:42:43;;;;;;;20.83;6.00;;;15.80;1.00;;;;;;7375634;19;20018;-70
2023/10/09 07:48:05;;;;;;;25.95;6.60;;;15.90;1.00;;;;;;7376003;19;20109;-69
2023/10/09 07:50:48;;;;;;;19.85;5.68;;;16.00;1.00;;;;;;7371712;19;20404;-69
2023/10/09 07:53:25;;;;;;;15.38;5.60;;;16.20;1.00;;;;;;7375980;19;20046;-69
2023/10/09 07:56:06;;;;;;;21.27;6.82;;;16.20;1.00;;;;;;7374328;19;20010;-70
2023/10/09 07:58:45;;;;;;;21.42;5.88;;;16.20;1.00;;;;;;7374589;19;20013;-70
2023/10/09 08:01:22;;;;;;;15.50;5.97;;;16.30;1.00;;;;;;7375061;19;20018;-70
2023/10/09 08:04:05;;;;;;;17.77;6.18;;;16.40;1.00;;;;;;7376740;19;20141;-70
2023/10/09 08:06:42;;;;;;;19.90;5.93;;;16.40;1.00;;;;;;7367604;19;20011;-70
2023/10/09 08:09:45;;;;;;;19.92;5.53;;;16.50;1.00;;;;;;7376749;19;20366;-69
2023/10/09 08:12:39;;;;;;;;;;;16.60;1.00;;;;;;6866790;19;2005273;-69
2023/10/09 08:17:58;;;;;;;19.02;5.88;;;16.70;1.00;;;;;;7373936;19;20522;-70
2023/10/09 08:20:45;;;;;;;17.08;5.35;;;16.80;1.00;;;;;;7377004;19;20359;-69
2023/10/09 08:23:22;;;;;;;21.17;6.50;;;16.90;1.00;;;;;;6864988;19;2004744;-69
2023/10/09 08:25:57;;;;;;;16.02;6.32;;;17.00;1.00;;;;;;7373149;19;20015;-70
2023/10/09 08:28:39;;;;;;;23.35;6.30;;;17.20;1.00;;;;;;7376141;19;20017;-69
2023/10/09 08:31:19;;;;;;;21.00;7.95;;;17.30;1.00;;;;;;7373750;19;20007;-70
2023/10/09 08:33:56;;;;;;;25.70;6.50;;;17.30;1.00;;;;;;7377213;19;20424;-69
2023/10/09 08:36:36;;;;;;;21.48;6.22;;;17.40;1.00;;;;;;7374981;19;20011;-70
2023/10/09 08:39:17;;;;;;;19.95;5.70;;;17.30;1.00;;;;;;7374424;19;20035;-70
2023/10/09 08:41:47;;;;;;;21.65;5.57;;;17.50;1.00;;;;;;7376878;19;20060;-70
2023/10/09 08:44:17;;;;;;;17.55;5.68;;;17.40;1.00;;;;;;7375143;19;20026;-70
2023/10/09 08:46:47;;;;;;;21.85;5.80;;;17.50;1.00;;;;;;7373718;19;20767;-69
2023/10/09 08:49:21;;;;;;;16.92;5.60;;;17.60;1.00;;;;;;7375292;19;20089;-70
2023/10/09 08:51:52;;;;;;;22.25;5.47;;;17.60;1.00;;;;;;7376274;19;20018;-70
2023/10/09 08:54:22;;;;;;;18.42;5.50;;;17.60;1.00;;;;;;7376296;19;20469;-70
2023/10/09 08:56:54;;;;;;;20.40;6.70;;;17.80;1.00;;;;;;7374027;19;20018;-69
2023/10/09 08:59:24;;;;;;;22.38;6.85;;;17.80;1.00;;;;;;7351502;19;20055;-70
2023/10/09 09:01:58;;;;;;;18.45;6.25;;;17.90;1.00;;;;;;7377064;19;20386;-70
2023/10/09 09:04:41;;;;;;;21.40;6.80;;;18.10;1.00;;;;;;7375767;19;20007;-70
2023/10/09 09:07:29;;;;;;;24.50;7.13;;;18.10;1.00;;;;;;7370489;19;20013;-70
2023/10/09 09:10:04;;;;;;;22.20;6.60;;;17.90;1.00;;;;;;7377287;19;20014;-71
2023/10/09 09:12:37;;;;;;;20.88;7.05;;;17.90;1.00;;;;;;7375592;19;20086;-70
2023/10/09 09:15:20;;;;;;;21.42;6.82;;;18.00;1.00;;;;;;7375721;19;20104;-70
2023/10/09 09:17:51;;;;;;;22.48;6.25;;;18.00;1.00;;;;;;7377422;19;20011;-71
2023/10/09 09:20:28;;;;;;;19.63;6.25;;;17.80;1.00;;;;;;7374676;19;20027;-70
2023/10/09 09:22:59;;;;;;;20.17;6.13;;;17.80;1.00;;;;;;7375247;19;20497;-70
2023/10/09 09:25:44;;;;;;;17.83;6.25;;;18.00;1.00;;;;;;7373858;19;20014;-70
2023/10/09 09:28:19;;;;;;;20.98;7.22;;;18.10;1.00;;;;;;6864997;19;2004774;-70
2023/10/09 09:30:51;;;;;;;30.98;7.20;;;18.30;1.00;;;;;;7377125;19;20014;-71
2023/10/09 09:33:38;;;;;;;25.40;6.88;;;18.40;1.00;;;;;;7376942;19;20474;-70
2023/10/09 09:36:11;;;;;;;24.85;6.93;;;18.60;1.00;;;;;;7371048;19;20014;-71
2023/10/09 09:38:47;;;;;;;24.65;6.97;;;18.90;1.00;;;;;;7374552;19;20010;-71
2023/10/09 09:41:24;;;;;;;17.23;6.60;;;19.10;1.00;;;;;;7373757;19;20015;-71
2023/10/09 09:44:00;;;;;;;20.80;6.15;;;19.40;1.00;;;;;;7374009;19;20787;-71
2023/10/09 09:46:35;;;;;;;17.88;6.50;;;19.80;1.00;;;;;;7373388;19;20026;-71
2023/10/09 09:49:16;;;;;;;26.92;6.57;;;19.90;1.00;;;;;;7371362;19;20058;-70
2023/10/09 09:51:49;;;;;;;28.02;6.93;;;20.00;1.00;;;;;;7373719;19;20011;-71
2023/10/09 09:54:17;;;;;;;22.05;7.40;;;20.20;1.00;;;;;;7370663;19;20110;-70
2023/10/09 09:56:51;;;;;;;23.85;6.20;;;20.40;1.00;;;;;;7368843;19;20389;-71
2023/10/09 09:59:27;;;;;;;15.52;4.85;;;20.60;1.00;;;;;;7369881;19;20014;-71
2023/10/09 10:02:06;;;;;;;23.70;5.63;;;20.70;1.00;;;;;;7369246;19;20006;-71
2023/10/09 10:04:41;;;;;;;16.95;5.30;;;20.80;1.00;;;;;;7368664;19;20916;-70
2023/10/09 10:07:16;;;;;;;16.00;5.43;;;20.80;1.00;;;;;;7367835;19;20026;-70
2023/10/09 10:09:48;;;;;;;22.70;8.75;;;20.90;1.00;;;;;;7373007;19;20011;-70
2023/10/09 10:13:02;;;;;;;25.33;5.72;;;21.00;1.00;;;;;;7371531;19;20073;-70
2023/10/09 10:16:12;;;;;;;19.77;4.50;;;21.10;1.00;;;;;;6863048;19;2004858;-70
2023/10/09 10:21:52;;;;;;;24.08;4.85;;;21.30;1.00;;;;;;6860937;19;2005085;-70
2023/10/09 10:24:57;;;;;;;19.48;4.72;;;21.60;1.00;;;;;;7372260;19;20010;-70
2023/10/09 10:27:26;;;;;;;16.02;4.82;;;21.70;1.00;;;;;;6861867;19;2004793;-70
2023/10/09 10:30:33;;;;;;;18.58;3.78;;;21.70;1.00;;;;;;7372598;19;20063;-70
2023/10/09 10:33:12;;;;;;;18.98;4.72;;;21.60;1.00;;;;;;6863110;19;2004820;-70
2023/10/09 10:35:52;;;;;;;17.35;4.50;;;21.60;1.00;;;;;;7367973;19;20436;-69
2023/10/09 10:38:36;;;;;;;19.63;5.68;;;21.60;1.00;;;;;;7371199;19;20014;-70
2023/10/09 10:41:19;;;;;;;19.88;5.10;;;21.70;1.00;;;;;;7369771;19;20474;-70
2023/10/09 10:44:00;;;;;;;22.83;4.57;;;21.80;1.00;;;;;;7371825;19;20015;-70
2023/10/09 10:46:37;;;;;;;18.27;4.28;;;21.90;1.00;;;;;;7371067;19;20021;-70
2023/10/09 10:49:20;;;;;;;29.05;5.03;;;21.90;1.00;;;;;;7369486;19;20010;-69
2023/10/09 10:52:01;;;;;;;14.13;4.03;;;21.90;1.00;;;;;;7372338;19;20047;-70
2023/10/09 10:57:28;;;;;;;22.95;4.65;;;22.00;1.00;;;;;;6858217;19;2004963;-70
2023/10/09 11:02:47;;;;;;;21.70;4.25;;;22.30;1.00;;;;;;7370898;19;20018;-71
2023/10/09 11:05:26;;;;;;;19.95;3.78;;;22.40;1.00;;;;;;7370222;19;20011;-72
2023/10/09 11:08:00;;;;;;;15.57;4.20;;;22.50;1.00;;;;;;7373369;19;20017;-71
2023/10/09 11:10:31;;;;;;;17.38;3.78;;;22.80;1.00;;;;;;7373883;19;20021;-71
2023/10/09 11:15:55;;;;;;;18.45;4.88;;;22.70;1.00;;;;;;6857836;19;2005360;-71
2023/10/09 11:18:27;;;;;;;14.68;4.10;;;22.70;1.00;;;;;;7371424;19;20040;-71
2023/10/09 11:21:22;;;;;;;22.35;4.45;;;22.90;1.00;;;;;;7372267;19;20010;-72
2023/10/09 11:24:23;;;;;;;19.02;5.38;;;22.80;1.00;;;;;;6867833;19;2004844;-70
2023/10/09 11:26:55;;;;;;;13.05;3.78;;;22.70;1.00;;;;;;6866439;19;2004986;-70
2023/10/09 11:32:22;;;;;;;15.35;4.15;;;22.20;1.00;;;;;;6867908;19;2004718;-70
2023/10/09 11:34:54;;;;;;;18.42;4.28;;;22.20;1.00;;;;;;7379370;19;20471;-71
2023/10/09 11:37:42;;;;;;;20.90;4.20;;;22.20;1.00;;;;;;7375205;19;20006;-71
2023/10/09 11:40:32;;;;;;;11.20;3.30;;;22.20;1.00;;;;;;7376806;19;20424;-71
2023/10/09 11:43:12;;;;;;;26.55;4.25;;;22.20;1.00;;;;;;7380050;19;20049;-71
2023/10/09 11:45:54;;;;;;;15.05;3.60;;;22.20;1.00;;;;;;7375107;19;20015;-71
2023/10/09 11:48:24;;;;;;;16.25;3.75;;;22.10;1.00;;;;;;7378912;19;20022;-71
2023/10/09 11:51:18;;;;;;;14.35;3.92;;;22.20;1.00;;;;;;7378344;19;24373;-71
2023/10/09 11:53:49;;;;;;;13.43;3.33;;;22.30;1.00;;;;;;6864974;19;2004749;-71
2023/10/09 11:56:20;;;;;;;23.85;4.75;;;22.30;1.00;;;;;;7375095;19;20011;-70
2023/10/09 11:58:53;;;;;;;13.02;4.07;;;22.40;1.00;;;;;;7377920;19;20463;-71
2023/10/09 12:01:25;;;;;;;10.40;3.38;;;22.40;1.00;;;;;;7376341;19;20010;-71
2023/10/09 12:03:55;;;;;;;17.13;3.90;;;22.40;1.00;;;;;;7376971;19;20030;-70
2023/10/09 12:06:32;;;;;;;15.43;3.47;;;22.40;1.00;;;;;;7375952;19;20522;-71
2023/10/09 12:09:05;;;;;;;20.33;4.05;;;22.30;1.00;;;;;;7378801;19;20007;-71
2023/10/09 12:11:35;;;;;;;13.70;3.60;;;22.40;1.00;;;;;;7375364;19;20356;-70
2023/10/09 12:14:09;;;;;;;13.63;3.80;;;22.40;1.00;;;;;;7376683;19;20293;-69
2023/10/09 12:16:49;;;;;;;24.63;5.03;;;22.50;1.00;;;;;;7374959;19;20014;-69
2023/10/09 12:19:20;;;;;;;12.07;3.78;;;22.50;1.00;;;;;;7375542;19;20078;-71
2023/10/09 12:24:48;;;;;;;13.43;3.80;;;22.80;1.00;;;;;;7377453;19;20022;-70
2023/10/09 12:27:20;;;;;;;19.20;4.20;;;23.00;1.00;;;;;;7375335;19;20017;-70
2023/10/09 12:29:50;;;;;;;16.77;3.92;;;23.20;1.00;;;;;;7377553;19;20018;-72
2023/10/09 12:32:21;;;;;;;10.63;3.63;;;23.30;1.00;;;;;;7376425;19;20018;-71
2023/10/09 12:34:51;;;;;;;16.77;4.25;;;23.40;1.00;;;;;;7376751;19;20014;-71
2023/10/09 12:37:21;;;;;;;15.75;3.70;;;23.30;1.00;;;;;;7374660;19;20089;-70
2023/10/09 12:39:56;;;;;;;16.02;4.03;;;23.20;1.00;;;;;;7377801;19;20483;-69
2023/10/09 12:42:28;;;;;;;13.55;4.03;;;23.10;1.00;;;;;;7376224;19;21002;-69
2023/10/09 12:44:58;;;;;;;14.75;3.33;;;23.10;1.00;;;;;;7376412;19;20047;-69
2023/10/09 12:47:28;;;;;;;17.23;3.95;;;23.20;1.00;;;;;;7375448;19;20019;-69
2023/10/09 12:49:58;;;;;;;11.23;3.83;;;23.10;1.00;;;;;;7375499;19;20024;-69
2023/10/09 12:52:29;;;;;;;16.17;4.10;;;23.10;1.00;;;;;;7375776;19;20394;-69
2023/10/09 12:55:06;;;;;;;20.50;4.05;;;23.10;1.00;;;;;;7378493;19;20093;-69
2023/10/09 12:57:36;;;;;;;15.23;4.03;;;22.90;1.00;;;;;;7375451;19;20502;-70
2023/10/09 13:00:11;;;;;;;10.57;4.07;;;23.00;1.00;;;;;;7375212;19;20035;-70
2023/10/09 13:02:44;;;;;;;17.25;4.03;;;23.10;1.00;;;;;;7358643;19;20117;-70
2023/10/09 13:05:25;;;;;;;10.17;3.77;;;23.20;1.00;;;;;;7357907;19;20018;-70
2023/10/09 13:07:56;;;;;;;11.48;4.05;;;23.50;1.00;;;;;;7360386;19;20017;-70
2023/10/09 13:10:31;;;;;;;9.98;4.85;;;23.80;1.00;;;;;;7359747;19;20037;-71
2023/10/09 13:13:05;;;;;;;11.93;4.18;;;24.10;1.00;;;;;;7359573;19;20512;-71
2023/10/09 13:15:42;;;;;;;15.10;3.78;;;24.10;1.00;;;;;;7357810;19;20007;-71
2023/10/09 13:18:14;;;;;;;6.40;3.38;;;24.20;1.00;;;;;;7355853;19;20464;-71
2023/10/09 13:20:45;;;;;;;15.15;4.15;;;24.20;1.00;;;;;;7359754;19;20094;-71
2023/10/09 13:23:17;;;;;;;11.10;4.32;;;24.20;1.00;;;;;;7348696;19;20502;-71
2023/10/09 13:25:49;;;;;;;12.45;3.92;;;24.00;1.00;;;;;;7354488;19;20010;-70
2023/10/09 13:28:20;;;;;;;15.30;4.80;;;24.10;1.00;;;;;;7351182;19;21238;-70
2023/10/09 13:30:51;;;;;;;15.27;4.97;;;24.10;1.00;;;;;;7357951;19;20018;-70
2023/10/09 13:33:21;;;;;;;13.93;4.45;;;24.10;1.00;;;;;;7359900;19;20052;-70
2023/10/09 13:35:52;;;;;;;16.02;5.03;;;24.00;1.00;;;;;;7357737;19;20007;-70
2023/10/09 13:38:22;;;;;;;13.68;4.93;;;24.20;1.00;;;;;;7356289;19;20043;-70
2023/10/09 13:41:04;;;;;;;11.43;5.70;;;24.40;1.00;;;;;;7359073;19;20026;-71
2023/10/09 13:43:34;;;;;;;15.15;4.97;;;24.50;1.00;;;;;;7361904;19;20027;-70
2023/10/09 13:46:04;;;;;;;13.40;5.03;;;24.50;1.00;;;;;;7360312;19;20086;-70
2023/10/09 13:48:38;;;;;;;12.02;5.53;;;24.50;1.00;;;;;;7359544;19;20002;-71
2023/10/09 13:51:13;;;;;;;14.23;5.82;;;24.70;1.00;;;;;;7361452;19;20041;-71
2023/10/09 13:53:47;;;;;;;14.45;6.60;;;24.60;1.00;;;;;;7360949;19;20070;-70
2023/10/09 13:56:21;;;;;;;;;;;24.70;1.00;;;;;;7358926;19;20074;-70
2023/10/09 13:58:54;;;;;;;15.45;4.82;;;24.60;1.00;;;;;;7365877;19;19921;-70
2023/10/09 14:01:33;;;;;;;16.92;6.35;;;24.60;1.00;;;;;;7366887;19;20057;-69
2023/10/09 14:04:06;;;;;;;16.83;5.55;;;24.60;1.00;;;;;;7369677;19;20023;-70
2023/10/09 14:06:37;;;;;;;15.52;5.70;;;24.60;1.00;;;;;;7363439;19;20010;-70
2023/10/09 14:09:09;;;;;;;18.98;5.38;;;24.50;1.00;;;;;;7366379;19;20045;-70
2023/10/09 14:11:44;;;;;;;11.25;5.07;;;24.50;1.00;;;;;;7367157;19;20006;-70
2023/10/09 14:14:16;;;;;;;11.05;5.05;;;24.40;1.00;;;;;;7367056;19;20577;-69
2023/10/09 14:16:46;;;;;;;15.60;5.45;;;24.20;1.00;;;;;;7364580;19;20014;-69
2023/10/09 14:19:20;;;;;;;14.98;5.82;;;24.10;1.00;;;;;;7364137;19;20472;-70
2023/10/09 14:21:51;;;;;;;14.73;5.28;;;24.20;1.00;;;;;;7365311;19;20021;-69
2023/10/09 14:24:26;;;;;;;12.77;5.32;;;24.20;1.00;;;;;;7367461;19;20006;-70
2023/10/09 14:26:58;;;;;;;11.38;5.22;;;24.20;1.00;;;;;;7365800;19;20030;-70
2023/10/09 14:29:28;;;;;;;15.13;5.07;;;24.10;1.00;;;;;;7365435;19;20015;-70
2023/10/09 14:32:02;;;;;;;16.13;6.20;;;24.10;1.00;;;;;;7367839;19;20040;-71
2023/10/09 14:34:36;;;;;;;;;;;24.00;1.00;;;;;;7373293;19;20011;-72
2023/10/09 14:37:06;;;;;;;14.50;5.88;;;24.00;1.00;;;;;;7368976;19;19914;-72
2023/10/09 14:39:36;;;;;;;10.77;5.13;;;24.10;1.00;;;;;;7372913;19;20407;-71
2023/10/09 14:42:09;;;;;;;18.15;5.82;;;24.10;1.00;;;;;;7371447;19;20011;-71
2023/10/09 14:44:40;;;;;;;14.70;5.05;;;24.00;1.00;;;;;;7372888;19;20105;-71